createdAt,value
2022-10-17T00:01:11.411Z,101445.84
2022-10-17T00:03:40.698Z,101444.06
2022-10-17T00:06:10.960Z,101446.72
2022-10-17T00:08:40.928Z,101455.47
2022-10-17T00:11:14.309Z,101455.47
2022-10-17T00:13:44.166Z,101466.97
2022-10-17T00:16:12.395Z,101468.75
2022-10-17T00:18:43.672Z,101469.63
2022-10-17T00:21:17.024Z,101460.81
2022-10-17T00:23:45.238Z,101465.22
2022-10-17T00:26:13.930Z,101468.75
2022-10-17T00:28:43.601Z,101471.41
2022-10-17T00:31:11.932Z,101476.66
2022-10-17T00:33:40.167Z,101480.19
2022-10-17T00:36:10.877Z,101481.06
2022-10-17T00:38:39.123Z,101494.28
2022-10-17T00:41:07.592Z,101490.75
2022-10-17T00:46:33.444Z,101489.88
2022-10-17T00:49:05.999Z,101488.13
2022-10-17T00:51:40.315Z,101485.47
2022-10-17T00:54:10.906Z,101502.22
2022-10-17T00:56:40.552Z,101499.56
2022-10-17T00:59:10.998Z,101508.34
2022-10-17T01:01:42.442Z,101503.94
2022-10-17T01:04:11.500Z,101506.56
2022-10-17T01:06:39.671Z,101498.69
2022-10-17T01:09:08.530Z,101502.22
2022-10-17T01:11:43.824Z,101497.81
2022-10-17T01:14:26.902Z,101503.97
2022-10-17T01:17:08.466Z,101496.03
2022-10-17T01:19:57.529Z,101499.56
2022-10-17T01:22:30.458Z,101494.28
2022-10-17T01:25:24.837Z,101496.91
2022-10-17T01:28:08.541Z,101506.56
2022-10-17T01:30:57.173Z,101497.81
2022-10-17T01:33:33.996Z,101503.94
2022-10-17T01:36:10.357Z,101513.66
2022-10-17T01:38:47.326Z,101518.06
2022-10-17T01:41:25.768Z,101503.09
2022-10-17T01:44:00.196Z,101480.22
2022-10-17T01:46:35.850Z,101502.22
2022-10-17T01:49:07.201Z,101504.88
2022-10-17T01:51:39.941Z,101515.44
2022-10-17T01:54:13.392Z,101513.66
2022-10-17T01:56:44.029Z,101503.13
2022-10-17T01:59:16.751Z,101498.72
2022-10-17T02:01:52.397Z,101510.13
2022-10-17T02:04:20.995Z,101518.94
2022-10-17T02:06:49.308Z,101520.72
2022-10-17T02:09:22.763Z,101517.19
2022-10-17T02:12:09.766Z,101535.69
2022-10-17T02:14:49.662Z,101538.31
2022-10-17T02:17:31.810Z,101540.94
2022-10-17T02:20:08.778Z,101531.28
2022-10-17T02:22:43.481Z,101545.34
2022-10-17T02:25:18.549Z,101547.97
2022-10-17T02:27:53.925Z,101548.88
2022-10-17T02:30:30.375Z,101549.72
2022-10-17T02:33:03.383Z,101557.66
2022-10-17T02:35:37.264Z,101549.72
2022-10-17T02:38:09.423Z,101538.31
2022-10-17T02:40:38.705Z,101548.88
2022-10-17T02:43:07.013Z,101540.06
2022-10-17T02:45:38.284Z,101555.91
2022-10-17T02:48:12.502Z,101555.91
2022-10-17T02:50:50.386Z,101562.94
2022-10-17T02:53:26.551Z,101570.00
2022-10-17T02:56:00.087Z,101559.41
2022-10-17T02:58:33.584Z,101570.84
2022-10-17T03:01:02.223Z,101574.38
2022-10-17T03:03:33.330Z,101563.81
2022-10-17T03:06:01.996Z,101575.22
2022-10-17T03:08:30.268Z,101570.84
2022-10-17T03:10:58.578Z,101574.34
2022-10-17T03:13:27.054Z,101579.63
2022-10-17T03:15:55.379Z,101580.53
2022-10-17T03:18:24.173Z,101594.63
2022-10-17T03:20:54.033Z,101591.94
2022-10-17T03:23:22.245Z,101594.59
2022-10-17T03:25:50.328Z,101600.75
2022-10-17T03:28:18.676Z,101608.66
2022-10-17T03:30:47.020Z,101609.50
2022-10-17T03:33:15.132Z,101613.94
2022-10-17T03:35:43.695Z,101609.53
2022-10-17T03:38:13.278Z,101606.00
2022-10-17T03:40:41.359Z,101605.13
2022-10-17T03:43:11.655Z,101598.06
2022-10-17T03:45:40.143Z,101591.91
2022-10-17T03:48:08.504Z,101594.56
2022-10-17T03:50:36.850Z,101589.28
2022-10-17T03:53:05.136Z,101578.72
2022-10-17T03:55:34.680Z,101592.78
2022-10-17T03:58:03.055Z,101590.13
2022-10-17T04:00:31.210Z,101596.28
2022-10-17T04:02:59.728Z,101592.78
2022-10-17T04:05:28.327Z,101608.59
2022-10-17T04:07:58.678Z,101603.31
2022-10-17T04:10:29.827Z,101610.38
2022-10-17T04:12:59.264Z,101619.13
2022-10-17T04:15:27.351Z,101631.44
2022-10-17T04:17:56.129Z,101627.03
2022-10-17T04:20:24.398Z,101623.50
2022-10-17T04:22:52.491Z,101614.69
2022-10-17T04:25:20.661Z,101619.06
2022-10-17T04:27:49.263Z,101614.66
2022-10-17T04:30:18.931Z,101615.50
2022-10-17T04:32:47.261Z,101622.56
2022-10-17T04:35:15.415Z,101619.06
2022-10-17T04:37:43.570Z,101609.38
2022-10-17T04:40:12.485Z,101616.44
2022-10-17T04:42:41.119Z,101620.78
2022-10-17T04:45:10.180Z,101622.56
2022-10-17T04:47:40.152Z,101633.03
2022-10-17T04:50:08.667Z,101636.56
2022-10-17T04:52:37.583Z,101641.81
2022-10-17T04:55:06.677Z,101638.31
2022-10-17T04:57:36.762Z,101640.91
2022-10-17T05:00:05.866Z,101636.53
2022-10-17T05:02:34.425Z,101638.28
2022-10-17T05:05:03.999Z,101645.31
2022-10-17T05:07:32.079Z,101659.44
2022-10-17T05:10:00.499Z,101648.91
2022-10-17T05:12:29.187Z,101654.22
2022-10-17T05:14:57.613Z,101645.44
2022-10-17T05:17:26.229Z,101600.50
2022-10-17T05:19:54.529Z,101639.31
2022-10-17T05:22:24.652Z,101641.94
2022-10-17T05:24:53.168Z,101636.66
2022-10-17T05:27:21.411Z,101626.09
2022-10-17T05:29:51.587Z,101645.38
2022-10-17T05:32:19.969Z,101640.97
2022-10-17T05:34:48.164Z,101640.09
2022-10-17T05:37:16.481Z,101635.69
2022-10-17T05:39:50.624Z,101634.78
2022-10-17T05:42:19.765Z,101638.28
2022-10-17T05:44:48.232Z,101647.09
2022-10-17T05:47:17.463Z,101640.09
2022-10-17T05:49:50.023Z,101640.09
2022-10-17T05:52:20.889Z,101643.56
2022-10-17T05:54:50.438Z,101647.09
2022-10-17T05:57:18.529Z,101643.66
2022-10-17T05:59:46.925Z,101633.97
2022-10-17T06:02:15.390Z,101645.38
2022-10-17T06:04:46.430Z,101636.56
2022-10-17T06:07:14.874Z,101644.44
2022-10-17T06:09:43.531Z,101650.59
2022-10-17T06:12:13.118Z,101662.84
2022-10-17T06:14:41.692Z,101658.47
2022-10-17T06:17:14.872Z,101666.34
2022-10-17T06:19:45.165Z,101659.25
2022-10-17T06:22:13.700Z,101657.56
2022-10-17T06:24:42.412Z,101656.63
2022-10-17T06:27:12.864Z,101657.56
2022-10-17T06:29:41.326Z,101664.53
2022-10-17T06:32:12.557Z,101675.06
2022-10-17T06:34:47.991Z,101675.06
2022-10-17T06:37:16.103Z,101676.84
2022-10-17T06:39:44.593Z,101682.13
2022-10-17T06:42:14.594Z,101681.22
2022-10-17T06:44:42.682Z,101685.72
2022-10-17T06:47:12.708Z,101675.22
2022-10-17T06:49:42.802Z,101678.59
2022-10-17T06:52:11.844Z,101681.25
2022-10-17T06:54:40.148Z,101687.53
2022-10-17T06:57:08.624Z,101684.75
2022-10-17T06:59:38.306Z,101695.38
2022-10-17T07:02:06.821Z,101691.03
2022-10-17T07:04:35.303Z,101662.84
2022-10-17T07:07:03.749Z,101683.09
2022-10-17T07:09:32.984Z,101688.41
2022-10-17T07:12:01.811Z,101694.56
2022-10-17T07:14:32.168Z,101698.06
2022-10-17T07:17:02.575Z,101695.44
2022-10-17T07:19:31.872Z,101701.59
2022-10-17T07:22:00.173Z,101705.13
2022-10-17T07:24:28.850Z,101717.47
2022-10-17T07:26:57.086Z,101712.22
2022-10-17T07:29:25.129Z,101714.00
2022-10-17T07:31:53.595Z,101700.81
2022-10-17T07:34:27.476Z,101716.66
2022-10-17T07:36:57.017Z,101712.28
2022-10-17T07:39:25.381Z,101723.72
2022-10-17T07:41:53.834Z,101729.03
2022-10-17T07:44:22.500Z,101712.28
2022-10-17T07:46:50.848Z,101712.34
2022-10-17T07:49:19.014Z,101710.59
2022-10-17T07:51:49.396Z,101721.16
2022-10-17T07:54:17.640Z,101730.84
2022-10-17T07:56:50.770Z,101728.22
2022-10-17T07:59:19.428Z,101726.47
2022-10-17T08:01:47.848Z,101721.22
2022-10-17T08:04:17.150Z,101712.44
2022-10-17T08:06:45.601Z,101693.97
2022-10-17T08:09:15.347Z,101699.25
2022-10-17T08:11:44.707Z,101700.16
2022-10-17T08:14:13.749Z,101704.59
2022-10-17T08:16:42.834Z,101707.25
2022-10-17T08:19:11.896Z,101709.00
2022-10-17T08:21:41.569Z,101663.19
2022-10-17T08:24:10.130Z,101702.00
2022-10-17T08:26:42.448Z,101699.38
2022-10-17T08:29:15.263Z,101696.75
2022-10-17T08:31:47.706Z,101695.00
2022-10-17T08:34:17.196Z,101701.16
2022-10-17T08:36:45.638Z,101703.81
2022-10-17T08:39:14.014Z,101689.75
2022-10-17T08:41:59.082Z,101687.97
2022-10-17T08:44:40.893Z,101682.72
2022-10-17T08:47:14.902Z,101686.25
2022-10-17T08:49:48.631Z,101680.94
2022-10-17T08:52:24.091Z,101688.88
2022-10-17T08:54:52.772Z,101695.03
2022-10-17T08:57:22.803Z,101692.41
2022-10-17T08:59:53.829Z,101695.06
2022-10-17T09:02:45.700Z,101698.56
2022-10-17T09:05:29.174Z,101704.75
2022-10-17T09:08:06.327Z,101700.31
2022-10-17T09:10:52.737Z,101702.09
2022-10-17T09:13:52.640Z,101687.13
2022-10-17T09:16:38.511Z,101677.41
2022-10-17T09:19:13.064Z,101673.91
2022-10-17T09:21:47.284Z,101678.31
2022-10-17T09:24:20.007Z,101670.38
2022-10-17T09:26:48.442Z,101672.13
2022-10-17T09:29:22.911Z,101677.41
2022-10-17T09:31:59.361Z,101666.84
2022-10-17T09:34:30.123Z,101666.84
2022-10-17T09:36:59.824Z,101656.22
2022-10-17T09:39:32.122Z,101668.59
2022-10-17T09:42:02.211Z,101658.88
2022-10-17T09:44:35.403Z,101649.22
2022-10-17T09:47:13.299Z,101650.94
2022-10-17T09:49:43.106Z,101658.00
2022-10-17T09:52:16.085Z,101649.22
2022-10-17T09:54:47.290Z,101642.09
2022-10-17T09:57:17.792Z,101631.53
2022-10-17T09:59:50.078Z,101626.25
2022-10-17T10:02:23.149Z,101621.84
2022-10-17T10:05:06.008Z,101620.94
2022-10-17T10:07:37.492Z,101617.44
2022-10-17T10:10:08.847Z,101619.19
2022-10-17T10:12:39.934Z,101605.97
2022-10-17T10:15:35.001Z,101619.19
2022-10-17T10:18:03.452Z,101613.88
2022-10-17T10:20:35.815Z,101610.41
2022-10-17T10:23:18.001Z,101610.41
2022-10-17T10:25:58.889Z,101605.13
2022-10-17T10:28:29.741Z,101605.13
2022-10-17T10:31:01.309Z,101599.78
2022-10-17T10:33:33.146Z,101601.56
2022-10-17T10:36:03.963Z,101594.56
2022-10-17T10:38:33.845Z,101585.75
2022-10-17T10:41:07.539Z,101591.03
2022-10-17T10:43:39.780Z,101569.03
2022-10-17T10:46:20.228Z,101575.19
2022-10-17T10:48:54.546Z,101585.75
2022-10-17T10:51:28.462Z,101578.72
2022-10-17T10:54:05.294Z,101580.47
2022-10-17T10:56:39.610Z,101576.03
2022-10-17T10:59:13.730Z,101579.56
2022-10-17T11:01:49.719Z,101569.91
2022-10-17T11:04:28.429Z,101576.94
2022-10-17T11:07:03.702Z,101566.38
2022-10-17T11:09:46.648Z,101564.59
2022-10-17T11:12:22.155Z,101559.31
2022-10-17T11:14:56.849Z,101552.25
2022-10-17T11:17:34.356Z,101541.69
2022-10-17T11:20:13.076Z,101544.34
2022-10-17T11:22:46.001Z,101527.59
2022-10-17T11:25:32.380Z,101527.59
2022-10-17T11:28:04.861Z,101524.94
2022-10-17T11:33:33.155Z,101516.97
2022-10-17T11:36:07.111Z,101499.38
2022-10-17T11:38:44.406Z,101502.84
2022-10-17T11:41:17.648Z,101493.19
2022-10-17T11:43:53.355Z,101493.19
2022-10-17T11:46:25.055Z,101492.34
2022-10-17T11:49:15.046Z,101491.44
2022-10-17T11:52:05.411Z,101474.72
2022-10-17T11:54:37.226Z,101468.53
2022-10-17T11:57:28.653Z,101470.34
2022-10-17T12:00:13.262Z,101465.97
2022-10-17T12:02:52.709Z,101469.47
2022-10-17T12:05:33.411Z,101467.75
2022-10-17T12:08:10.052Z,101457.25
2022-10-17T12:10:47.230Z,101455.47
2022-10-17T12:13:54.691Z,101434.31
2022-10-17T12:16:50.300Z,101414.91
2022-10-17T12:19:38.239Z,101416.66
2022-10-17T12:22:26.005Z,101416.69
2022-10-17T12:25:00.913Z,101406.13
2022-10-17T12:27:46.413Z,101406.16
2022-10-17T12:30:32.328Z,101408.81
2022-10-17T12:33:06.632Z,101416.75
2022-10-17T12:35:37.642Z,101411.47
2022-10-17T12:38:25.127Z,101413.25
2022-10-17T12:41:01.697Z,101392.09
2022-10-17T12:43:44.927Z,101380.66
2022-10-17T12:46:13.780Z,101363.06
2022-10-17T12:49:05.933Z,101365.72
2022-10-17T12:52:07.038Z,101353.44
2022-10-17T12:54:48.057Z,101339.34
2022-10-17T12:57:35.110Z,101327.91
2022-10-17T13:00:14.493Z,101311.22
2022-10-17T13:02:43.664Z,101297.13
2022-10-17T13:05:17.819Z,101281.34
2022-10-17T13:07:47.405Z,101287.50
2022-10-17T13:13:07.357Z,101276.06
2022-10-17T13:15:37.690Z,101254.94
2022-10-17T13:18:06.825Z,101245.28
2022-10-17T13:20:35.368Z,101226.81
2022-10-17T13:23:04.411Z,101219.81
2022-10-17T13:25:37.603Z,101219.84
2022-10-17T13:28:14.045Z,101232.16
2022-10-17T13:30:49.566Z,101216.31
2022-10-17T13:33:30.225Z,101189.03
2022-10-17T13:36:00.863Z,101167.03
2022-10-17T13:38:35.676Z,101176.72
2022-10-17T13:44:09.202Z,101226.88
2022-10-17T13:46:39.271Z,101204.03
2022-10-17T13:49:32.351Z,101207.59
2022-10-17T13:52:02.584Z,101209.34
2022-10-17T13:54:38.433Z,101194.41
2022-10-17T13:57:21.314Z,101193.50
2022-10-17T13:59:53.005Z,101196.97
2022-10-17T14:02:24.487Z,101199.59
2022-10-17T14:05:16.857Z,101190.81
2022-10-17T14:08:12.061Z,101189.03
2022-10-17T14:10:41.754Z,101205.75
2022-10-17T14:13:23.168Z,101188.16
2022-10-17T14:15:52.566Z,101174.09
2022-10-17T14:18:23.358Z,101181.94
2022-10-17T14:23:44.625Z,101161.69
2022-10-17T14:26:16.087Z,101165.19
2022-10-17T14:28:49.054Z,101163.47
2022-10-17T14:31:30.461Z,101165.25
2022-10-17T14:33:59.169Z,101166.09
2022-10-17T14:36:37.502Z,101172.25
2022-10-17T14:39:14.150Z,101174.91
2022-10-17T14:41:46.119Z,101184.59
2022-10-17T14:44:22.983Z,101174.03
2022-10-17T14:46:55.762Z,101141.53
2022-10-17T14:49:29.620Z,101147.72
2022-10-17T14:52:30.139Z,101148.53
2022-10-17T14:55:00.060Z,101148.50
2022-10-17T14:57:43.371Z,101161.72
2022-10-17T15:00:17.307Z,101170.53
2022-10-17T15:02:47.073Z,101142.34
2022-10-17T15:05:16.128Z,101125.56
2022-10-17T15:07:45.112Z,101109.72
2022-10-17T15:10:29.049Z,101117.66
2022-10-17T15:12:59.374Z,101109.66
2022-10-17T15:15:41.225Z,101109.72
2022-10-17T15:18:12.878Z,101099.94
2022-10-17T15:20:41.927Z,101101.69
2022-10-17T15:23:11.497Z,101103.44
2022-10-17T15:25:41.559Z,101093.78
2022-10-17T15:28:13.126Z,101078.81
2022-10-17T15:30:44.018Z,101083.16
2022-10-17T15:33:12.351Z,101075.22
2022-10-17T15:35:43.735Z,101071.69
2022-10-17T15:38:16.504Z,101076.09
2022-10-17T15:40:46.296Z,101064.63
2022-10-17T15:43:19.592Z,101064.63
2022-10-17T15:45:50.017Z,101055.84
2022-10-17T15:48:23.271Z,101061.13
2022-10-17T15:50:51.562Z,101057.56
2022-10-17T15:53:20.036Z,101055.78
2022-10-17T15:55:50.956Z,101046.91
2022-10-17T15:58:20.753Z,101041.59
2022-10-17T16:00:50.579Z,101032.81
2022-10-17T16:03:19.042Z,101034.50
2022-10-17T16:05:47.747Z,101029.22
2022-10-17T16:08:16.182Z,101032.69
2022-10-17T16:10:44.751Z,101035.31
2022-10-17T16:13:18.949Z,101029.22
2022-10-17T16:15:47.613Z,101027.38
2022-10-17T16:18:17.353Z,101020.25
2022-10-17T16:20:45.804Z,101021.97
2022-10-17T16:23:15.025Z,101021.94
2022-10-17T16:25:44.232Z,101016.56
2022-10-17T16:28:12.635Z,101014.72
2022-10-17T16:30:46.504Z,101004.09
2022-10-17T16:33:16.382Z,100998.81
2022-10-17T16:35:45.752Z,101009.25
2022-10-17T16:38:16.307Z,100997.81
2022-10-17T16:40:46.806Z,100989.75
2022-10-17T16:43:15.281Z,100980.00
2022-10-17T16:45:43.520Z,100987.88
2022-10-17T16:48:12.467Z,100988.69
2022-10-17T16:50:42.757Z,100984.25
2022-10-17T16:53:14.437Z,100975.44
2022-10-17T16:55:42.604Z,100991.19
2022-10-17T16:58:11.449Z,100994.66
2022-10-17T17:00:43.544Z,100982.28
2022-10-17T17:03:11.908Z,100989.31
2022-10-17T17:05:40.731Z,100986.56
2022-10-17T17:08:12.573Z,100996.28
2022-10-17T17:10:46.408Z,100996.22
2022-10-17T17:13:15.207Z,100996.19
2022-10-17T17:18:12.993Z,101000.59
2022-10-17T17:20:42.440Z,100997.00
2022-10-17T17:23:15.728Z,101005.78
2022-10-17T17:25:45.507Z,101009.25
2022-10-17T17:28:13.923Z,101011.91
2022-10-17T17:30:42.164Z,101000.41
2022-10-17T17:33:11.657Z,101008.28
2022-10-17T17:35:43.615Z,101008.31
2022-10-17T17:38:13.488Z,100997.69
2022-10-17T17:40:50.471Z,101004.75
2022-10-17T17:43:20.068Z,101001.13
2022-10-17T17:45:49.176Z,100997.63
2022-10-17T17:48:17.858Z,100990.53
2022-10-17T17:50:46.759Z,100986.16
2022-10-17T17:53:17.940Z,100987.06
2022-10-17T17:55:46.258Z,100985.19
2022-10-17T17:58:14.870Z,100997.53
2022-10-17T18:00:43.583Z,100995.78
2022-10-17T18:03:12.438Z,100994.88
2022-10-17T18:05:41.803Z,100991.34
2022-10-17T18:08:10.150Z,100993.94
2022-10-17T18:10:40.186Z,101004.41
2022-10-17T18:13:08.682Z,101001.69
2022-10-17T18:15:38.639Z,101002.56
2022-10-17T18:18:07.003Z,101004.41
2022-10-17T18:20:36.295Z,100997.31
2022-10-17T18:23:04.524Z,100994.59
2022-10-17T18:25:32.711Z,100996.34
2022-10-17T18:28:02.452Z,100999.00
2022-10-17T18:30:34.402Z,101006.91
2022-10-17T18:33:02.861Z,101002.44
2022-10-17T18:35:31.724Z,101004.16
2022-10-17T18:37:59.872Z,100996.25
2022-10-17T18:40:28.389Z,100991.72
2022-10-17T18:42:57.089Z,100988.19
2022-10-17T18:45:27.464Z,100983.78
2022-10-17T18:47:55.729Z,100980.22
2022-10-17T18:50:25.988Z,100982.03
2022-10-17T18:52:54.496Z,100945.84
2022-10-17T18:55:22.497Z,100934.28
2022-10-17T18:57:51.131Z,100936.00
2022-10-17T19:00:19.601Z,100912.16
2022-10-17T19:02:49.203Z,100914.84
2022-10-17T19:05:17.498Z,100905.94
2022-10-17T19:07:45.677Z,100913.88
2022-10-17T19:10:13.746Z,100908.53
2022-10-17T19:12:42.182Z,100901.47
2022-10-17T19:15:13.825Z,100903.28
2022-10-17T19:17:42.124Z,100917.38
2022-10-17T19:20:12.389Z,100910.25
2022-10-17T19:22:41.010Z,100912.84
2022-10-17T19:25:10.140Z,100911.97
2022-10-17T19:27:38.671Z,100912.00
2022-10-17T19:30:10.128Z,100919.06
2022-10-17T19:32:38.729Z,100922.59
2022-10-17T19:35:08.612Z,100926.97
2022-10-17T19:37:38.766Z,100920.81
2022-10-17T19:40:07.978Z,100923.41
2022-10-17T19:42:38.548Z,100926.06
2022-10-17T19:45:08.753Z,100926.97
2022-10-17T19:47:37.042Z,100932.22
2022-10-17T19:50:06.401Z,100934.78
2022-10-17T19:52:34.837Z,100933.06
2022-10-17T19:55:04.708Z,100940.13
2022-10-17T19:57:32.938Z,100947.22
2022-10-17T20:00:01.463Z,100954.31
2022-10-17T20:02:29.813Z,100963.97
2022-10-17T20:05:17.205Z,100961.31
2022-10-17T20:07:46.958Z,100969.28
2022-10-17T20:10:18.952Z,100968.44
2022-10-17T20:12:47.696Z,100967.56
2022-10-17T20:15:15.939Z,100972.06
2022-10-17T20:17:44.349Z,100977.41
2022-10-17T20:20:12.720Z,100975.69
2022-10-17T20:22:41.122Z,100968.53
2022-10-17T20:25:10.032Z,100960.78
2022-10-17T20:27:40.061Z,100968.63
2022-10-17T20:30:09.603Z,100966.06
2022-10-17T20:32:39.832Z,100944.09
2022-10-17T20:35:09.669Z,100947.56
2022-10-17T20:37:41.685Z,100965.19
2022-10-17T20:43:01.948Z,100988.09
2022-10-17T20:45:45.147Z,100998.78
2022-10-17T20:48:19.024Z,101000.53
2022-10-17T20:50:47.473Z,101006.69
2022-10-17T20:53:36.073Z,101012.91
2022-10-17T20:56:06.135Z,101020.00
2022-10-17T20:58:38.290Z,101014.25
2022-10-17T21:01:08.703Z,101015.13
2022-10-17T21:03:39.925Z,101023.97
2022-10-17T21:06:11.576Z,101024.78
2022-10-17T21:08:39.868Z,101023.97
2022-10-17T21:11:09.921Z,101033.66
2022-10-17T21:13:40.784Z,101034.59
2022-10-17T21:16:11.202Z,101026.00
2022-10-17T21:18:40.337Z,101054.06
2022-10-17T21:21:13.626Z,101055.00
2022-10-17T21:23:43.828Z,101062.97
2022-10-17T21:26:13.126Z,101065.63
2022-10-17T21:28:45.308Z,101076.25
2022-10-17T21:31:15.710Z,101076.44
2022-10-17T21:33:46.216Z,101077.28
2022-10-17T21:36:16.951Z,101080.81
2022-10-17T21:38:46.153Z,101082.50
2022-10-17T21:41:17.308Z,101076.41
2022-10-17T21:43:47.455Z,101087.72
2022-10-17T21:46:17.558Z,101089.47
2022-10-17T21:48:47.844Z,101073.66
2022-10-17T21:51:18.788Z,101087.81
2022-10-17T21:53:47.143Z,101101.94
2022-10-17T21:56:19.895Z,101107.31
2022-10-17T21:58:50.281Z,101107.41
2022-10-17T22:01:21.373Z,101109.06
2022-10-17T22:03:52.559Z,101101.97
2022-10-17T22:06:40.550Z,101106.50
2022-10-17T22:09:15.783Z,101112.78
2022-10-17T22:11:48.627Z,101128.69
2022-10-17T22:14:20.427Z,101128.75
2022-10-17T22:16:50.022Z,101130.44
2022-10-17T22:19:21.505Z,101137.47
2022-10-17T22:21:50.072Z,101127.75
2022-10-17T22:26:54.407Z,101142.81
2022-10-17T22:29:24.067Z,101132.19
2022-10-17T22:31:52.145Z,101137.47
2022-10-17T22:34:20.714Z,101123.41
2022-10-17T22:36:49.237Z,101147.94
2022-10-17T22:39:17.488Z,101148.03
2022-10-17T22:41:46.010Z,101145.44
2022-10-17T22:44:14.640Z,101146.47
2022-10-17T22:46:44.400Z,101155.22
2022-10-17T22:49:12.956Z,101157.03
2022-10-17T22:51:41.708Z,101167.69
2022-10-17T22:54:10.052Z,101153.56
2022-10-17T22:56:38.625Z,101163.13
2022-10-17T22:59:06.869Z,101156.97
2022-10-17T23:01:35.058Z,101155.19
2022-10-17T23:04:05.212Z,101151.75
2022-10-17T23:06:33.758Z,101142.97
2022-10-17T23:09:01.858Z,101143.84
2022-10-17T23:11:30.030Z,101150.00
2022-10-17T23:13:58.827Z,101150.91
2022-10-17T23:16:27.111Z,101150.06
2022-10-17T23:18:55.382Z,101147.44
2022-10-17T23:21:25.240Z,101154.47
2022-10-17T23:23:53.538Z,101143.84
2022-10-17T23:26:21.818Z,101146.47
2022-10-17T23:28:54.830Z,101148.25
2022-10-17T23:31:23.548Z,101146.53
2022-10-17T23:33:51.936Z,101148.22
2022-10-17T23:36:22.015Z,101157.03
2022-10-17T23:38:54.998Z,101155.31
2022-10-17T23:41:26.300Z,101151.78
2022-10-17T23:43:54.504Z,101152.59
2022-10-17T23:46:22.862Z,101150.00
2022-10-17T23:48:51.193Z,101162.28
2022-10-17T23:51:21.419Z,101158.78
2022-10-17T23:53:49.462Z,101157.97
2022-10-17T23:56:19.169Z,101160.63
2022-10-17T23:58:47.805Z,101158.00
